createdAt,value
2018-10-11T00:00:30.274Z,25.20
2018-10-11T00:01:30.373Z,25.20
2018-10-11T00:02:30.463Z,27.10
2018-10-11T00:03:30.554Z,27.90
2018-10-11T00:04:30.667Z,27.50
2018-10-11T00:05:30.758Z,26.30
2018-10-11T00:06:30.845Z,29.20
2018-10-11T00:07:30.930Z,27.90
2018-10-11T00:08:31.033Z,26.30
2018-10-11T00:09:31.124Z,26.50
2018-10-11T00:10:31.208Z,26.50
2018-10-11T00:11:31.309Z,25.60
2018-10-11T00:12:31.391Z,26.10
2018-10-11T00:13:31.499Z,28.50
2018-10-11T00:14:31.591Z,27.90
2018-10-11T00:15:31.682Z,27.20
2018-10-11T00:16:31.774Z,27.60
2018-10-11T00:17:31.880Z,28.10
2018-10-11T00:18:31.970Z,30.40
2018-10-11T00:19:32.059Z,33.10
2018-10-11T00:20:32.146Z,32.10
2018-10-11T00:21:32.248Z,29.20
2018-10-11T00:22:32.338Z,28.20
2018-10-11T00:23:32.431Z,27.20
2018-10-11T00:24:32.518Z,26.90
2018-10-11T00:25:32.606Z,27.60
2018-10-11T00:26:32.725Z,27.50
2018-10-11T00:27:32.815Z,29.10
2018-10-11T00:28:32.905Z,27.10
2018-10-11T00:29:32.996Z,27.60
2018-10-11T00:30:33.116Z,33.20
2018-10-11T00:31:33.177Z,32.90
2018-10-11T00:32:33.266Z,30.60
2018-10-11T00:33:33.359Z,33.10
2018-10-11T00:34:33.449Z,35.40
2018-10-11T00:35:33.541Z,32.90
2018-10-11T00:36:33.631Z,30.90
2018-10-11T00:37:33.720Z,31.10
2018-10-11T00:38:33.807Z,30.90
2018-10-11T00:39:33.896Z,31.00
2018-10-11T00:40:33.989Z,29.00
2018-10-11T00:41:34.078Z,29.70
2018-10-11T00:42:34.171Z,28.10
2018-10-11T00:43:34.271Z,28.70
2018-10-11T00:44:34.359Z,28.10
2018-10-11T00:45:34.450Z,26.10
2018-10-11T00:46:34.541Z,29.70
2018-10-11T00:47:34.619Z,28.80
2018-10-11T00:48:34.709Z,26.80
2018-10-11T00:49:34.894Z,27.50
2018-10-11T00:50:34.896Z,27.60
2018-10-11T00:51:34.985Z,25.60
2018-10-11T00:52:35.081Z,26.40
2018-10-11T00:53:35.169Z,24.90
2018-10-11T00:54:42.418Z,28.70
2018-10-11T00:55:35.384Z,26.30
2018-10-11T00:56:35.476Z,26.20
2018-10-11T00:57:35.567Z,26.70
2018-10-11T00:58:35.668Z,27.70
2018-10-11T00:59:35.756Z,26.30
2018-10-11T01:00:35.854Z,26.20
2018-10-11T01:01:35.942Z,26.60
2018-10-11T01:02:36.033Z,27.00
2018-10-11T01:03:36.127Z,25.30
2018-10-11T01:04:36.214Z,25.30
2018-10-11T01:05:36.305Z,25.40
2018-10-11T01:06:36.394Z,24.60
2018-10-11T01:07:36.486Z,27.00
2018-10-11T01:08:36.579Z,26.30
2018-10-11T01:09:36.672Z,25.00
2018-10-11T01:10:36.761Z,25.10
2018-10-11T01:11:36.856Z,26.20
2018-10-11T01:12:36.943Z,26.90
2018-10-11T01:13:37.036Z,23.90
2018-10-11T01:14:37.126Z,25.70
2018-10-11T01:15:37.216Z,26.40
2018-10-11T01:16:37.309Z,25.60
2018-10-11T01:17:37.407Z,25.50
2018-10-11T01:18:37.493Z,25.30
2018-10-11T01:19:37.588Z,27.30
2018-10-11T01:20:37.680Z,25.40
2018-10-11T01:21:37.770Z,25.00
2018-10-11T01:22:37.864Z,24.80
2018-10-11T01:23:37.999Z,27.00
2018-10-11T01:24:38.042Z,26.70
2018-10-11T01:25:38.130Z,26.70
2018-10-11T01:26:38.214Z,26.10
2018-10-11T01:27:38.304Z,27.00
2018-10-11T01:28:38.395Z,26.70
2018-10-11T01:29:38.494Z,28.40
2018-10-11T01:30:38.572Z,30.10
2018-10-11T01:31:38.656Z,30.20
2018-10-11T01:32:38.746Z,31.90
2018-10-11T01:33:38.834Z,28.70
2018-10-11T01:34:38.930Z,27.90
2018-10-11T01:35:39.018Z,27.00
2018-10-11T01:36:39.106Z,28.60
2018-10-11T01:37:39.194Z,28.20
2018-10-11T01:38:39.316Z,24.20
2018-10-11T01:39:39.376Z,25.60
2018-10-11T01:40:39.497Z,25.40
2018-10-11T01:41:39.551Z,24.70
2018-10-11T01:42:39.650Z,24.40
2018-10-11T01:43:39.733Z,25.70
2018-10-11T01:44:39.825Z,24.10
2018-10-11T01:45:39.921Z,26.30
2018-10-11T01:46:40.008Z,26.00
2018-10-11T01:47:40.100Z,30.00
2018-10-11T01:48:40.192Z,28.00
2018-10-11T01:49:40.279Z,24.80
2018-10-11T01:50:40.369Z,23.10
2018-10-11T01:51:40.462Z,24.90
2018-10-11T01:52:40.550Z,25.50
2018-10-11T01:53:40.645Z,24.30
2018-10-11T01:54:40.732Z,25.30
2018-10-11T01:55:40.824Z,23.80
2018-10-11T01:56:40.942Z,24.30
2018-10-11T01:57:41.009Z,24.40
2018-10-11T01:58:41.101Z,26.10
2018-10-11T01:59:41.196Z,24.90
2018-10-11T02:00:41.277Z,24.90
2018-10-11T02:01:41.375Z,24.60
2018-10-11T02:02:41.467Z,25.90
2018-10-11T02:03:41.558Z,24.40
2018-10-11T02:04:41.649Z,25.00
2018-10-11T02:05:41.738Z,24.20
2018-10-11T02:06:41.831Z,25.60
2018-10-11T02:07:41.921Z,25.10
2018-10-11T02:08:42.010Z,25.10
2018-10-11T02:09:42.101Z,24.70
2018-10-11T02:10:42.186Z,29.40
2018-10-11T02:11:42.277Z,29.90
2018-10-11T02:12:42.369Z,29.10
2018-10-11T02:13:42.464Z,32.40
2018-10-11T02:14:42.551Z,31.20
2018-10-11T02:15:42.640Z,32.40
2018-10-11T02:16:42.731Z,28.70
2018-10-11T02:17:42.828Z,31.50
2018-10-11T02:18:42.915Z,32.80
2018-10-11T02:19:43.007Z,34.20
2018-10-11T02:20:43.101Z,29.80
2018-10-11T02:21:43.187Z,31.90
2018-10-11T02:22:43.277Z,29.80
2018-10-11T02:23:43.369Z,29.00
2018-10-11T02:24:43.459Z,29.60
2018-10-11T02:25:43.550Z,30.60
2018-10-11T02:26:43.642Z,31.30
2018-10-11T02:27:43.729Z,29.50
2018-10-11T02:28:43.822Z,28.50
2018-10-11T02:29:43.915Z,30.00
2018-10-11T02:30:44.002Z,27.80
2018-10-11T02:31:44.092Z,31.30
2018-10-11T02:32:44.185Z,29.40
2018-10-11T02:33:44.276Z,27.40
2018-10-11T02:34:44.369Z,28.60
2018-10-11T02:35:44.459Z,27.20
2018-10-11T02:36:44.552Z,26.70
2018-10-11T02:37:44.641Z,26.30
2018-10-11T02:38:44.733Z,25.80
2018-10-11T02:39:44.835Z,27.30
2018-10-11T02:40:44.922Z,25.50
2018-10-11T02:41:45.012Z,25.80
2018-10-11T02:42:45.105Z,26.00
2018-10-11T02:43:45.198Z,25.60
2018-10-11T02:44:45.285Z,26.20
2018-10-11T02:45:45.374Z,28.40
2018-10-11T02:46:45.464Z,31.50
2018-10-11T02:47:45.557Z,30.20
2018-10-11T02:48:45.647Z,30.50
2018-10-11T02:49:45.742Z,33.70
2018-10-11T02:50:45.828Z,31.90
2018-10-11T02:51:45.921Z,33.60
2018-10-11T02:52:46.012Z,32.60
2018-10-11T02:53:46.105Z,30.30
2018-10-11T02:54:46.200Z,30.90
2018-10-11T02:55:46.288Z,29.20
2018-10-11T02:56:46.376Z,29.40
2018-10-11T02:57:46.470Z,30.60
2018-10-11T02:58:46.565Z,28.70
2018-10-11T02:59:46.658Z,29.80
2018-10-11T03:00:46.749Z,31.10
2018-10-11T03:01:46.840Z,28.90
2018-10-11T03:02:46.931Z,29.90
2018-10-11T03:03:47.023Z,30.70
2018-10-11T03:04:47.112Z,33.40
2018-10-11T03:05:47.204Z,34.10
2018-10-11T03:06:47.298Z,37.40
2018-10-11T03:07:47.382Z,30.10
2018-10-11T03:08:47.472Z,32.40
2018-10-11T03:09:47.564Z,32.20
2018-10-11T03:10:47.654Z,30.30
2018-10-11T03:11:47.746Z,31.20
2018-10-11T03:12:47.834Z,31.10
2018-10-11T03:13:47.924Z,32.70
2018-10-11T03:14:48.019Z,28.60
2018-10-11T03:15:48.111Z,31.80
2018-10-11T03:16:48.204Z,30.20
2018-10-11T03:17:48.300Z,29.70
2018-10-11T03:18:48.389Z,32.40
2018-10-11T03:19:48.479Z,30.20
2018-10-11T03:20:48.572Z,29.60
2018-10-11T03:21:48.664Z,30.60
2018-10-11T03:22:48.755Z,31.50
2018-10-11T03:23:48.845Z,31.50
2018-10-11T03:24:48.932Z,29.30
2018-10-11T03:25:49.028Z,28.40
2018-10-11T03:26:49.111Z,29.60
2018-10-11T03:27:49.200Z,29.10
2018-10-11T03:28:49.289Z,31.10
2018-10-11T03:29:49.380Z,31.30
2018-10-11T03:30:49.472Z,30.60
2018-10-11T03:31:49.558Z,30.30
2018-10-11T03:32:49.652Z,29.80
2018-10-11T03:33:49.744Z,28.30
2018-10-11T03:34:49.834Z,29.40
2018-10-11T03:35:49.921Z,28.70
2018-10-11T03:36:50.029Z,26.90
2018-10-11T03:37:50.118Z,28.20
2018-10-11T03:38:50.209Z,30.20
2018-10-11T03:39:50.298Z,30.20
2018-10-11T03:40:50.387Z,29.40
2018-10-11T03:41:50.477Z,28.60
2018-10-11T03:42:50.568Z,30.40
2018-10-11T03:43:50.656Z,29.50
2018-10-11T03:44:50.747Z,28.70
2018-10-11T03:45:50.838Z,29.30
2018-10-11T03:46:50.929Z,28.50
2018-10-11T03:47:51.023Z,29.50
2018-10-11T03:48:51.128Z,30.20
2018-10-11T03:49:51.215Z,29.50
2018-10-11T03:50:51.305Z,31.60
2018-10-11T03:51:51.395Z,29.20
2018-10-11T03:52:51.486Z,29.80
2018-10-11T03:53:51.574Z,30.40
2018-10-11T03:54:51.666Z,31.30
2018-10-11T03:55:51.762Z,29.70
2018-10-11T03:56:51.852Z,30.30
2018-10-11T03:57:51.942Z,27.20
2018-10-11T03:58:52.033Z,26.90
2018-10-11T03:59:52.122Z,29.10
2018-10-11T04:00:52.214Z,26.90
2018-10-11T04:01:52.306Z,28.40
2018-10-11T04:02:52.398Z,26.60
2018-10-11T04:03:52.488Z,29.20
2018-10-11T04:04:52.577Z,28.00
2018-10-11T04:05:52.668Z,25.90
2018-10-11T04:06:52.758Z,27.70
2018-10-11T04:07:52.860Z,27.20
2018-10-11T04:08:52.934Z,28.50
2018-10-11T04:09:53.029Z,26.30
2018-10-11T04:10:53.118Z,27.60
2018-10-11T04:11:53.210Z,27.00
2018-10-11T04:12:53.305Z,25.40
2018-10-11T04:13:53.392Z,27.10
2018-10-11T04:14:53.491Z,29.20
2018-10-11T04:15:53.582Z,27.80
2018-10-11T04:16:53.670Z,28.20
2018-10-11T04:17:53.761Z,28.10
2018-10-11T04:18:53.854Z,27.00
2018-10-11T04:19:53.945Z,26.30
2018-10-11T04:20:54.035Z,28.40
2018-10-11T04:21:54.128Z,27.80
2018-10-11T04:22:54.214Z,27.40
2018-10-11T04:23:54.306Z,28.80
2018-10-11T04:24:54.396Z,30.10
2018-10-11T04:25:54.490Z,26.40
2018-10-11T04:26:54.579Z,27.20
2018-10-11T04:27:54.669Z,28.20
2018-10-11T04:28:54.765Z,27.90
2018-10-11T04:29:54.901Z,28.40
2018-10-11T04:30:54.942Z,28.50
2018-10-11T04:31:55.031Z,29.50
2018-10-11T04:32:55.123Z,27.70
2018-10-11T04:33:55.215Z,30.50
2018-10-11T04:34:55.307Z,27.40
2018-10-11T04:35:55.442Z,28.00
2018-10-11T04:36:55.491Z,26.20
2018-10-11T04:37:55.579Z,27.90
2018-10-11T04:38:55.672Z,26.60
2018-10-11T04:39:55.763Z,26.80
2018-10-11T04:40:55.853Z,27.20
2018-10-11T04:41:55.943Z,26.10
2018-10-11T04:42:56.061Z,28.50
2018-10-11T04:43:56.128Z,26.30
2018-10-11T04:44:56.218Z,29.30
2018-10-11T04:45:56.305Z,30.20
2018-10-11T04:46:56.397Z,26.70
2018-10-11T04:47:56.489Z,28.00
2018-10-11T04:48:56.578Z,26.50
2018-10-11T04:49:56.670Z,26.50
2018-10-11T04:50:56.758Z,26.80
2018-10-11T04:51:56.848Z,25.70
2018-10-11T04:52:56.955Z,27.40
2018-10-11T04:53:57.051Z,27.90
2018-10-11T04:54:57.139Z,25.40
2018-10-11T04:55:57.229Z,28.00
2018-10-11T04:56:57.320Z,27.20
2018-10-11T04:57:57.411Z,26.50
2018-10-11T04:58:57.503Z,27.10
2018-10-11T04:59:57.593Z,28.80
2018-10-11T05:00:57.679Z,25.80
2018-10-11T05:01:57.772Z,25.90
2018-10-11T05:02:57.867Z,27.40
2018-10-11T05:03:57.956Z,25.90
2018-10-11T05:04:58.046Z,25.80
2018-10-11T05:05:58.131Z,27.50
2018-10-11T05:06:58.225Z,24.90
2018-10-11T05:07:58.315Z,28.20
2018-10-11T05:08:58.412Z,26.40
2018-10-11T05:09:58.502Z,26.30
2018-10-11T05:10:58.591Z,27.10
2018-10-11T05:11:58.695Z,25.70
2018-10-11T05:12:58.822Z,27.40
2018-10-11T05:13:58.888Z,27.00
2018-10-11T05:14:58.973Z,25.00
2018-10-11T05:15:59.065Z,26.30
2018-10-11T05:16:59.155Z,25.40
2018-10-11T05:17:59.247Z,25.90
2018-10-11T05:18:59.331Z,26.30
2018-10-11T05:19:59.418Z,29.20
2018-10-11T05:20:59.511Z,26.40
2018-10-11T05:21:59.601Z,26.40
2018-10-11T05:22:59.693Z,27.80
2018-10-11T05:23:59.792Z,26.80
2018-10-11T05:24:59.879Z,29.50
2018-10-11T05:26:00.001Z,28.70
2018-10-11T05:27:00.059Z,30.00
2018-10-11T05:28:00.146Z,29.20
2018-10-11T05:29:00.240Z,29.40
2018-10-11T05:30:00.331Z,31.10
2018-10-11T05:31:00.425Z,31.80
2018-10-11T05:32:00.519Z,30.30
2018-10-11T05:33:00.607Z,30.10
2018-10-11T05:34:00.698Z,30.50
2018-10-11T05:35:00.787Z,28.60
2018-10-11T05:36:00.879Z,28.20
2018-10-11T05:37:00.966Z,30.30
2018-10-11T05:38:01.068Z,29.10
2018-10-11T05:39:01.155Z,26.40
2018-10-11T05:40:01.242Z,28.10
2018-10-11T05:41:01.336Z,25.90
2018-10-11T05:42:01.422Z,25.40
2018-10-11T05:43:01.514Z,27.10
2018-10-11T05:44:01.609Z,25.60
2018-10-11T05:45:01.694Z,27.20
2018-10-11T05:46:01.782Z,29.10
2018-10-11T05:47:01.876Z,27.80
2018-10-11T05:48:01.962Z,26.70
2018-10-11T05:49:02.053Z,26.30
2018-10-11T05:50:02.151Z,26.40
2018-10-11T05:51:02.238Z,25.60
2018-10-11T05:52:02.329Z,26.00
2018-10-11T05:53:02.418Z,28.50
2018-10-11T05:54:02.509Z,27.70
2018-10-11T05:55:02.603Z,28.80
2018-10-11T05:56:02.692Z,27.20
2018-10-11T05:57:02.781Z,25.90
2018-10-11T05:58:02.870Z,27.80
2018-10-11T05:59:02.962Z,26.90
2018-10-11T06:00:03.059Z,26.90
2018-10-11T06:01:03.152Z,26.40
2018-10-11T06:02:03.240Z,31.40
2018-10-11T06:03:03.332Z,30.30
2018-10-11T06:04:03.459Z,30.00
2018-10-11T06:05:03.510Z,29.00
2018-10-11T06:06:03.610Z,28.70
2018-10-11T06:07:03.695Z,28.80
2018-10-11T06:08:03.784Z,29.30
2018-10-11T06:09:03.881Z,29.30
2018-10-11T06:10:03.973Z,30.90
2018-10-11T06:11:04.062Z,27.90
2018-10-11T06:12:04.171Z,29.60
2018-10-11T06:13:04.246Z,29.00
2018-10-11T06:14:04.332Z,29.00
2018-10-11T06:15:04.421Z,29.60
2018-10-11T06:16:04.509Z,28.90
2018-10-11T06:17:04.603Z,29.50
2018-10-11T06:18:04.697Z,30.00
2018-10-11T06:19:04.784Z,30.60
2018-10-11T06:20:04.876Z,28.90
2018-10-11T06:21:04.964Z,28.50
2018-10-11T06:22:05.051Z,29.70
2018-10-11T06:23:05.140Z,29.70
2018-10-11T06:24:05.230Z,29.60
2018-10-11T06:25:05.320Z,30.00
2018-10-11T06:26:05.413Z,29.70
2018-10-11T06:27:05.502Z,29.80
2018-10-11T06:28:05.593Z,29.50
2018-10-11T06:29:05.682Z,28.30
2018-10-11T06:30:05.805Z,29.80
2018-10-11T06:31:05.901Z,29.00
2018-10-11T06:32:06.005Z,29.20
2018-10-11T06:33:06.077Z,26.90
2018-10-11T06:34:06.166Z,28.60
2018-10-11T06:35:06.259Z,29.30
2018-10-11T06:36:06.380Z,29.90
2018-10-11T06:37:06.441Z,28.70
2018-10-11T06:38:06.533Z,28.60
2018-10-11T06:39:06.622Z,28.30
2018-10-11T06:40:06.714Z,29.30
2018-10-11T06:41:06.804Z,28.40
2018-10-11T06:42:06.955Z,29.30
2018-10-11T06:43:06.985Z,27.60
2018-10-11T06:44:07.086Z,29.00
2018-10-11T06:45:07.174Z,29.20
2018-10-11T06:46:07.259Z,27.90
2018-10-11T06:47:07.361Z,28.60
2018-10-11T06:48:07.451Z,29.10
2018-10-11T06:49:07.540Z,27.00
2018-10-11T06:50:07.691Z,25.90
2018-10-11T06:51:07.722Z,26.40
2018-10-11T06:52:07.813Z,27.90
2018-10-11T06:53:07.905Z,27.90
2018-10-11T06:54:07.991Z,27.30
2018-10-11T06:55:15.213Z,28.30
2018-10-11T06:56:08.186Z,26.30
2018-10-11T06:57:08.275Z,26.90
2018-10-11T06:58:08.372Z,28.50
2018-10-11T06:59:08.458Z,29.50
2018-10-11T07:00:08.548Z,31.40
2018-10-11T07:01:08.635Z,28.80
2018-10-11T07:02:08.730Z,27.00
2018-10-11T07:03:08.817Z,29.20
2018-10-11T07:04:08.937Z,28.10
2018-10-11T07:05:09.001Z,26.50
2018-10-11T07:06:09.093Z,29.30
2018-10-11T07:07:09.220Z,27.80
2018-10-11T07:08:09.277Z,38.90
2018-10-11T07:09:09.414Z,42.70
2018-10-11T07:10:09.459Z,27.50
2018-10-11T07:11:09.551Z,27.10
2018-10-11T07:12:09.636Z,27.50
2018-10-11T07:13:09.725Z,26.50
2018-10-11T07:14:09.815Z,31.00
2018-10-11T07:15:09.907Z,27.20
2018-10-11T07:16:09.998Z,27.80
2018-10-11T07:17:10.090Z,26.40
2018-10-11T07:18:10.188Z,32.10
2018-10-11T07:19:10.329Z,31.30
2018-10-11T07:20:10.370Z,29.20
2018-10-11T07:21:10.459Z,26.20
2018-10-11T07:22:10.554Z,27.90
2018-10-11T07:23:10.643Z,28.20
2018-10-11T07:24:10.752Z,27.40
2018-10-11T07:25:10.838Z,28.20
2018-10-11T07:26:10.931Z,28.30
2018-10-11T07:27:11.021Z,27.50
2018-10-11T07:28:11.116Z,27.80
2018-10-11T07:29:11.206Z,28.10
2018-10-11T07:30:11.299Z,28.40
2018-10-11T07:31:11.391Z,28.40
2018-10-11T07:32:11.474Z,29.70
2018-10-11T07:33:11.573Z,27.80
2018-10-11T07:34:11.663Z,30.70
2018-10-11T07:35:11.777Z,28.50
2018-10-11T07:36:11.851Z,26.40
2018-10-11T07:37:11.945Z,26.70
2018-10-11T07:38:12.044Z,27.40
2018-10-11T07:39:12.134Z,27.00
2018-10-11T07:40:12.271Z,29.30
2018-10-11T07:41:12.317Z,29.50
2018-10-11T07:42:12.410Z,26.70
2018-10-11T07:43:12.501Z,28.10
2018-10-11T07:44:12.590Z,29.40
2018-10-11T07:45:12.682Z,27.50
2018-10-11T07:46:12.770Z,26.90
2018-10-11T07:47:12.906Z,26.70
2018-10-11T07:48:12.955Z,28.20
2018-10-11T07:49:13.054Z,27.40
2018-10-11T07:50:13.137Z,27.70
2018-10-11T07:51:13.230Z,28.10
2018-10-11T07:52:13.320Z,28.60
2018-10-11T07:53:13.412Z,27.30
2018-10-11T07:54:13.504Z,28.30
2018-10-11T07:55:13.602Z,26.90
2018-10-11T07:56:13.685Z,25.40
2018-10-11T07:57:13.796Z,26.80
2018-10-11T07:58:13.889Z,27.40
2018-10-11T07:59:14.003Z,28.50
2018-10-11T08:00:14.101Z,26.30
2018-10-11T08:01:14.204Z,26.40
2018-10-11T08:02:14.314Z,27.30
2018-10-11T08:03:14.407Z,28.60
2018-10-11T08:04:14.509Z,27.10
2018-10-11T08:05:14.605Z,27.40
2018-10-11T08:06:14.701Z,28.30
2018-10-11T08:07:14.864Z,27.50
2018-10-11T08:10:57.692Z,27.90
2018-10-11T08:11:57.791Z,28.30
2018-10-11T08:12:57.711Z,28.20
2018-10-11T08:13:57.809Z,26.20
2018-10-11T08:14:57.900Z,26.80
2018-10-11T08:15:58.051Z,29.50
2018-10-11T08:16:58.288Z,27.70
2018-10-11T08:17:58.432Z,27.80
2018-10-11T08:18:58.375Z,27.60
2018-10-11T08:19:58.490Z,26.90
2018-10-11T08:20:58.458Z,27.10
2018-10-11T08:21:58.550Z,27.90
2018-10-11T08:22:58.648Z,26.80
2018-10-11T08:23:58.745Z,27.30
2018-10-11T08:24:58.986Z,25.90
2018-10-11T08:25:59.300Z,29.80
2018-10-11T08:26:59.159Z,26.00
2018-10-11T08:27:59.109Z,25.30
2018-10-11T08:28:59.218Z,26.40
2018-10-11T08:29:59.305Z,26.70
2018-10-11T08:30:59.399Z,25.80
2018-10-11T08:31:59.492Z,26.90
2018-10-11T08:32:59.614Z,24.50
2018-10-11T08:33:59.680Z,24.30
2018-10-11T08:34:59.774Z,25.20
2018-10-11T08:35:59.868Z,25.80
2018-10-11T08:36:59.960Z,25.40
2018-10-11T08:38:00.250Z,24.60
2018-10-11T08:39:00.146Z,26.10
2018-10-11T08:40:00.243Z,24.40
2018-10-11T08:41:00.335Z,24.90
2018-10-11T08:42:00.429Z,23.90
2018-10-11T08:43:00.523Z,24.50
2018-10-11T08:44:00.663Z,24.80
2018-10-11T08:45:00.703Z,24.20
2018-10-11T08:46:00.801Z,27.20
2018-10-11T08:47:00.894Z,23.80
2018-10-11T08:48:00.990Z,23.50
2018-10-11T08:49:01.092Z,25.50
2018-10-11T08:50:01.176Z,24.30
2018-10-11T08:51:01.279Z,23.80
2018-10-11T08:52:01.366Z,23.50
2018-10-11T08:53:01.461Z,24.20
2018-10-11T08:54:01.565Z,23.10
2018-10-11T08:55:01.660Z,23.50
2018-10-11T08:56:01.827Z,23.70
2018-10-11T08:57:01.839Z,24.30
2018-10-11T08:58:01.932Z,24.00
2018-10-11T08:59:02.031Z,24.80
2018-10-11T09:00:02.124Z,24.60
2018-10-11T09:01:02.216Z,24.30
2018-10-11T09:02:02.310Z,24.10
2018-10-11T09:03:02.407Z,24.90
2018-10-11T09:04:02.615Z,23.30
2018-10-11T09:05:02.647Z,24.20
2018-10-11T09:06:02.687Z,25.00
2018-10-11T09:07:02.783Z,23.20
2018-10-11T09:08:02.879Z,23.70
2018-10-11T09:09:02.969Z,22.30
2018-10-11T09:10:03.064Z,23.30
2018-10-11T09:11:03.286Z,23.40
2018-10-11T09:12:03.252Z,23.20
2018-10-11T09:13:03.346Z,23.00
2018-10-11T09:14:03.448Z,23.30
2018-10-11T09:15:03.543Z,22.80
2018-10-11T09:16:03.638Z,22.80
2018-10-11T09:17:03.739Z,23.00
2018-10-11T09:18:03.832Z,25.40
2018-10-11T09:19:03.929Z,22.10
2018-10-11T09:20:04.026Z,22.40
2018-10-11T09:21:04.119Z,21.50
2018-10-11T09:22:04.215Z,22.20
2018-10-11T09:23:04.341Z,23.00
2018-10-11T09:24:04.406Z,21.70
2018-10-11T09:25:04.499Z,21.10
2018-10-11T09:26:04.596Z,20.80
2018-10-11T09:27:04.724Z,20.20
2018-10-11T09:28:04.817Z,21.50
2018-10-11T09:29:04.920Z,19.30
2018-10-11T09:30:05.008Z,20.30
2018-10-11T09:31:05.103Z,23.90
2018-10-11T09:32:05.199Z,18.80
2018-10-11T09:33:05.295Z,18.40
2018-10-11T09:34:05.388Z,18.10
2018-10-11T09:35:05.487Z,17.60
2018-10-11T09:36:05.585Z,16.00
2018-10-11T09:37:05.728Z,16.90
2018-10-11T09:38:05.767Z,17.40
2018-10-11T09:39:05.863Z,17.60
2018-10-11T09:40:05.957Z,17.00
2018-10-11T09:41:06.052Z,17.30
2018-10-11T09:42:06.150Z,17.10
2018-10-11T09:43:06.322Z,16.80
2018-10-11T09:44:06.338Z,17.60
2018-10-11T09:45:06.430Z,16.90
2018-10-11T09:46:06.526Z,17.00
2018-10-11T09:47:06.620Z,17.20
2018-10-11T09:48:06.725Z,17.40
2018-10-11T09:49:06.813Z,19.20
2018-10-11T09:50:06.906Z,16.80
2018-10-11T09:51:07.605Z,16.50
2018-10-11T09:52:07.077Z,16.00
2018-10-11T09:53:07.178Z,16.80
2018-10-11T09:54:07.268Z,16.70
2018-10-11T09:55:07.365Z,16.40
2018-10-11T09:56:07.456Z,16.00
2018-10-11T09:57:07.616Z,18.00
2018-10-11T09:58:07.645Z,17.80
2018-10-11T09:59:07.739Z,16.70
2018-10-11T10:00:07.838Z,17.40
2018-10-11T10:01:07.931Z,18.00
2018-10-11T10:02:08.053Z,17.50
2018-10-11T10:03:08.118Z,18.00
2018-10-11T10:04:08.216Z,17.90
2018-10-11T10:05:08.312Z,18.20
2018-10-11T10:06:08.412Z,17.90
2018-10-11T10:07:08.509Z,17.10
2018-10-11T10:08:08.605Z,18.80
2018-10-11T10:09:08.700Z,17.70
2018-10-11T10:10:08.797Z,15.80
2018-10-11T10:11:08.894Z,16.70
2018-10-11T10:12:08.993Z,17.50
2018-10-11T10:13:09.087Z,16.90
2018-10-11T10:14:09.183Z,15.90
2018-10-11T10:15:09.280Z,15.70
2018-10-11T10:16:09.387Z,15.60
2018-10-11T10:17:09.484Z,15.50
2018-10-11T10:18:09.576Z,14.70
2018-10-11T10:19:09.670Z,15.40
2018-10-11T10:20:09.765Z,17.50
2018-10-11T10:21:09.885Z,14.30
2018-10-11T10:22:09.959Z,14.30
2018-10-11T10:23:10.049Z,14.00
2018-10-11T10:24:10.148Z,13.40
2018-10-11T10:25:10.240Z,12.80
2018-10-11T10:26:10.334Z,15.60
2018-10-11T10:27:10.531Z,13.70
2018-10-11T10:28:10.527Z,13.80
2018-10-11T10:29:10.623Z,12.60
2018-10-11T10:30:10.718Z,10.90
2018-10-11T10:31:10.820Z,12.30
2018-10-11T10:32:10.917Z,11.60
2018-10-11T10:33:11.018Z,12.60
2018-10-11T10:34:11.110Z,12.40
2018-10-11T10:35:11.203Z,10.70
2018-10-11T10:36:11.301Z,10.80
2018-10-11T10:37:11.405Z,10.30
2018-10-11T10:38:11.493Z,12.90
2018-10-11T10:39:11.592Z,12.00
2018-10-11T10:40:11.703Z,11.80
2018-10-11T10:41:11.796Z,10.50
2018-10-11T10:42:11.888Z,11.00
2018-10-11T10:43:11.985Z,12.30
2018-10-11T10:44:12.082Z,11.40
2018-10-11T10:45:12.181Z,11.40
2018-10-11T10:46:12.276Z,11.50
2018-10-11T10:47:12.373Z,10.90
2018-10-11T10:48:12.473Z,12.50
2018-10-11T10:49:12.571Z,10.80
2018-10-11T10:50:12.667Z,10.80
2018-10-11T10:51:12.764Z,10.60
2018-10-11T10:52:12.861Z,10.30
2018-10-11T10:53:12.964Z,12.10
2018-10-11T10:54:13.080Z,11.50
2018-10-11T10:55:13.161Z,11.40
2018-10-11T10:56:13.259Z,10.90
2018-10-11T10:57:13.359Z,11.00
2018-10-11T10:58:13.457Z,10.10
2018-10-11T10:59:13.553Z,12.10
2018-10-11T11:00:13.652Z,10.40
2018-10-11T11:01:13.749Z,9.90
2018-10-11T11:02:13.840Z,10.80
2018-10-11T11:03:13.944Z,11.10
2018-10-11T11:04:14.043Z,11.10
2018-10-11T11:05:14.147Z,10.30
2018-10-11T11:06:14.244Z,11.60
2018-10-11T11:07:14.380Z,10.90
2018-10-11T11:08:14.447Z,11.20
2018-10-11T11:09:14.550Z,11.50
2018-10-11T11:10:14.666Z,10.50
2018-10-11T11:11:14.767Z,10.90
2018-10-11T11:12:14.872Z,11.50
2018-10-11T11:13:14.995Z,10.50
2018-10-11T11:14:15.066Z,12.10
2018-10-11T11:15:15.164Z,11.60
2018-10-11T11:16:15.264Z,12.20
2018-10-11T11:17:15.365Z,11.50
2018-10-11T11:18:15.461Z,10.80
2018-10-11T11:19:15.560Z,11.10
2018-10-11T11:20:15.660Z,16.70
2018-10-11T11:21:15.770Z,12.20
2018-10-11T11:22:15.867Z,10.40
2018-10-11T11:23:15.966Z,10.80
2018-10-11T11:24:16.070Z,11.50
2018-10-11T11:25:16.220Z,10.30
2018-10-11T11:26:16.267Z,10.50
2018-10-11T11:27:16.367Z,10.20
2018-10-11T11:28:16.492Z,10.30
2018-10-11T11:29:16.564Z,12.30
2018-10-11T11:30:16.663Z,10.80
2018-10-11T11:31:16.761Z,13.40
2018-10-11T11:32:16.862Z,10.10
2018-10-11T11:33:16.961Z,11.00
2018-10-11T11:34:17.065Z,12.20
2018-10-11T11:35:17.163Z,11.10
2018-10-11T11:36:17.262Z,11.30
2018-10-11T11:37:17.359Z,11.40
2018-10-11T11:38:17.461Z,10.60
2018-10-11T11:39:17.565Z,11.90
2018-10-11T11:40:17.653Z,10.70
2018-10-11T11:41:17.751Z,11.70
2018-10-11T11:42:17.853Z,11.70
2018-10-11T11:43:17.949Z,10.80
2018-10-11T11:44:18.052Z,13.70
2018-10-11T11:45:18.152Z,11.30
2018-10-11T11:46:18.250Z,12.90
2018-10-11T11:47:18.352Z,10.50
2018-10-11T11:48:18.450Z,10.50
2018-10-11T11:49:18.545Z,10.30
2018-10-11T11:50:18.646Z,11.20
2018-10-11T11:51:18.741Z,11.90
2018-10-11T11:52:18.844Z,11.10
2018-10-11T11:53:18.943Z,10.40
2018-10-11T11:54:19.041Z,11.50
2018-10-11T11:55:19.139Z,10.20
2018-10-11T11:56:19.235Z,10.80
2018-10-11T11:57:19.336Z,11.10
2018-10-11T11:58:19.436Z,12.60
2018-10-11T11:59:19.542Z,11.60
2018-10-11T12:00:19.635Z,10.40
2018-10-11T12:01:19.735Z,10.50
2018-10-11T12:02:19.843Z,10.80
2018-10-11T12:03:19.943Z,10.40
2018-10-11T12:04:20.041Z,10.40
2018-10-11T12:05:20.142Z,10.80
2018-10-11T12:06:20.242Z,11.40
2018-10-11T12:07:20.344Z,10.30
2018-10-11T12:08:20.444Z,10.80
2018-10-11T12:09:20.556Z,11.10
2018-10-11T12:10:20.660Z,10.50
2018-10-11T12:11:20.757Z,12.70
2018-10-11T12:12:20.859Z,10.60
2018-10-11T12:13:20.956Z,11.20
2018-10-11T12:14:21.059Z,11.20
2018-10-11T12:15:21.157Z,10.30
2018-10-11T12:16:21.268Z,12.20
2018-10-11T12:17:21.369Z,10.60
2018-10-11T12:18:21.471Z,9.90
2018-10-11T12:19:21.570Z,11.30
2018-10-11T12:20:21.671Z,11.00
2018-10-11T12:21:21.770Z,11.20
2018-10-11T12:22:21.868Z,11.60
2018-10-11T12:23:21.980Z,10.20
2018-10-11T12:24:22.080Z,11.50
2018-10-11T12:25:22.181Z,10.80
2018-10-11T12:26:22.337Z,11.00
2018-10-11T12:27:22.378Z,10.60
2018-10-11T12:28:22.561Z,11.90
2018-10-11T12:29:22.580Z,10.50
2018-10-11T12:30:22.694Z,13.70
2018-10-11T12:31:22.793Z,10.70
2018-10-11T12:32:22.895Z,9.70
2018-10-11T12:33:22.992Z,10.50
2018-10-11T12:34:23.091Z,10.30
2018-10-11T12:35:23.187Z,10.00
2018-10-11T12:36:23.333Z,12.40
2018-10-11T12:37:23.405Z,11.30
2018-10-11T12:38:23.506Z,10.40
2018-10-11T12:39:23.601Z,10.30
2018-10-11T12:40:24.226Z,10.10
2018-10-11T12:41:23.799Z,10.00
2018-10-11T12:42:23.918Z,12.60
2018-10-11T12:43:24.003Z,10.80
2018-10-11T12:44:24.090Z,10.10
2018-10-11T12:45:24.275Z,10.10
2018-10-11T12:46:24.293Z,12.00
2018-10-11T12:47:24.395Z,10.00
2018-10-11T12:48:24.493Z,10.10
2018-10-11T12:49:24.717Z,10.50
2018-10-11T12:50:24.703Z,12.10
2018-10-11T12:51:24.801Z,11.50
2018-10-11T12:52:24.896Z,10.30
2018-10-11T12:53:24.999Z,10.00
2018-10-11T12:54:25.107Z,10.60
2018-10-11T12:55:32.383Z,9.90
2018-10-11T12:56:25.429Z,10.10